»·PEaware :: N727FL KEUG-KRDD

N727FL :: KEUG-KRDD

FLIGHT INFORMATION

Flight Status: Arrived
Operator: Privately registered:
United States
More flights under this callsign
Pilot: Spencer F. (32151)
Aircraft: CIRRUS SR-22 TURBO
(S22T)
More flights by this aircraft type
Origin: KEUG Mahlon Sweet
United States
Destination: KRDD Redding Mun
United States
More flights between these airports :: More routes between these airports
Route: +
File this flight plan on PilotEdge
Remarks:
Altitude:
(Current/Filed)
11,500ft
Speed:
(Current/Filed)
165kts
Departed: 02-Nov-20 02:39 PM
Arrived: 02-Nov-20 04:26 PM
Distance/Time
Traveled:
221nm/1:47
Distance/Time
To Go:
Arrived

Flight Plot

Page will automatically refresh every two minutes.

Flight plan parsing failed; only flown route is shown


Map Options




Map Legend


Flown Route
Filed Route
Departure Airport
Arrival Airport
Navaid (VOR, NDB)
Fix

Horizontal Profiles

Position Reports

Time Latitude Longitude Heading Altitude Ground
Speed
02-Nov-20 14:16 44.115262 -123.215239 159 370ft 0kts
02-Nov-20 14:17 44.115262 -123.215239 159 370ft 0kts
02-Nov-20 14:18 44.115262 -123.215239 159 370ft 0kts
02-Nov-20 14:19 44.115262 -123.215239 159 370ft 0kts
02-Nov-20 14:19 44.115262 -123.215239 159 370ft 0kts
02-Nov-20 14:21 44.115262 -123.215239 159 370ft 0kts
02-Nov-20 14:21 44.115262 -123.215239 159 370ft 0kts
02-Nov-20 14:23 44.115262 -123.215239 159 370ft 0kts
02-Nov-20 14:23 44.115262 -123.215239 159 370ft 0kts
02-Nov-20 14:24 44.115262 -123.215239 159 370ft 0kts
02-Nov-20 14:26 44.115262 -123.215239 159 370ft 0kts
02-Nov-20 14:26 44.115262 -123.215239 159 370ft 0kts
02-Nov-20 14:28 44.115262 -123.215239 159 370ft 0kts
02-Nov-20 14:28 44.115262 -123.215239 159 370ft 0kts
02-Nov-20 14:29 44.115262 -123.215239 159 370ft 0kts
02-Nov-20 14:30 44.115262 -123.215239 159 370ft 0kts
02-Nov-20 14:31 44.115262 -123.215239 159 370ft 0kts
02-Nov-20 14:32 44.115262 -123.215239 159 370ft 0kts
02-Nov-20 14:33 44.115262 -123.215239 159 370ft 0kts
02-Nov-20 14:34 44.115262 -123.215239 159 370ft 0kts
02-Nov-20 14:35 44.115040 -123.214725 31 370ft 10kts
02-Nov-20 14:36 44.113602 -123.217780 271 369ft 0kts
02-Nov-20 14:37 44.113602 -123.217784 271 369ft 1kts
02-Nov-20 14:38 44.132545 -123.219338 358 528ft 137kts
02-Nov-20 14:39 44.153648 -123.249166 225 901ft 169kts
02-Nov-20 14:40 44.120051 -123.255739 158 2335ft 98kts
02-Nov-20 14:41 44.094822 -123.243494 167 3511ft 94kts
02-Nov-20 14:42 44.070462 -123.232551 169 4610ft 89kts
02-Nov-20 14:43 44.047352 -123.220925 171 5628ft 87kts
02-Nov-20 14:44 44.024644 -123.209076 171 6655ft 88kts
02-Nov-20 14:45 44.001842 -123.196122 171 7650ft 88kts
02-Nov-20 14:46 43.979135 -123.182717 171 8533ft 89kts
02-Nov-20 14:47 43.956193 -123.168976 172 9269ft 91kts
02-Nov-20 14:48 43.932836 -123.154640 171 10057ft 91kts
02-Nov-20 14:49 43.909629 -123.140172 171 10717ft 92kts
02-Nov-20 14:50 43.886025 -123.124750 171 11410ft 95kts
02-Nov-20 14:51 43.857096 -123.110043 179 11433ft 117kts
02-Nov-20 14:52 43.823416 -123.101492 180 11478ft 128kts
02-Nov-20 14:53 43.787190 -123.092779 179 11429ft 135kts
02-Nov-20 14:54 43.749862 -123.083535 179 11435ft 137kts
02-Nov-20 14:55 43.712285 -123.074284 179 11450ft 139kts
02-Nov-20 14:56 43.673761 -123.064926 179 11458ft 143kts
02-Nov-20 14:57 43.634848 -123.055672 179 11446ft 135kts
02-Nov-20 14:58 43.597879 -123.046595 179 11486ft 135kts
02-Nov-20 14:59 43.562213 -123.037646 179 11438ft 129kts
02-Nov-20 15:00 43.523789 -123.028746 179 11484ft 145kts
02-Nov-20 15:01 43.485884 -123.020323 179 12040ft 122kts
02-Nov-20 15:02 43.455478 -123.011399 177 12772ft 94kts
02-Nov-20 15:03 43.429976 -123.002443 179 13722ft 93kts
02-Nov-20 15:04 43.407084 -122.993633 178 14745ft 79kts
02-Nov-20 15:05 43.387739 -122.984316 179 15817ft 67kts
02-Nov-20 15:06 43.367594 -122.975788 180 16526ft 82kts
02-Nov-20 15:07 43.343869 -122.967413 181 17062ft 95kts
02-Nov-20 15:08 43.314667 -122.959113 179 17626ft 127kts
02-Nov-20 15:09 43.277525 -122.950626 178 17537ft 121kts
02-Nov-20 15:10 43.246769 -122.941382 178 17582ft 118kts
02-Nov-20 15:11 43.213693 -122.932572 179 17587ft 120kts
02-Nov-20 15:12 43.180615 -122.924029 179 16577ft 116kts
02-Nov-20 15:13 43.149117 -122.915353 178 15733ft 110kts
02-Nov-20 15:14 43.117255 -122.906578 179 15605ft 122kts
02-Nov-20 15:15 43.083039 -122.897945 178 15582ft 123kts
02-Nov-20 15:16 43.047858 -122.889634 179 15651ft 130kts
02-Nov-20 15:17 43.012169 -122.881720 178 15627ft 131kts
02-Nov-20 15:18 42.976982 -122.873587 179 15614ft 125kts
02-Nov-20 15:19 42.943119 -122.865590 179 15619ft 121kts
02-Nov-20 15:20 42.908364 -122.857782 179 15508ft 123kts
02-Nov-20 15:21 42.874995 -122.850085 178 15531ft 125kts
02-Nov-20 15:22 42.840213 -122.842476 179 15510ft 127kts
02-Nov-20 15:23 42.806249 -122.834815 178 15498ft 120kts
02-Nov-20 15:24 42.773210 -122.827432 179 15531ft 128kts
02-Nov-20 15:25 42.735762 -122.820493 178 15534ft 142kts
02-Nov-20 15:26 42.698451 -122.813308 178 15529ft 124kts
02-Nov-20 15:27 42.665743 -122.806205 178 15516ft 123kts
02-Nov-20 15:28 42.628349 -122.799220 179 15553ft 138kts
02-Nov-20 15:29 42.591189 -122.792410 179 15518ft 129kts
02-Nov-20 15:30 42.555981 -122.785728 179 15546ft 127kts
02-Nov-20 15:31 42.520804 -122.779022 178 15556ft 128kts
02-Nov-20 15:32 42.485172 -122.772408 178 15551ft 129kts
02-Nov-20 15:33 42.449683 -122.765890 178 15556ft 128kts
02-Nov-20 15:34 42.414126 -122.759502 178 15563ft 129kts
02-Nov-20 15:35 42.378330 -122.753175 178 15570ft 130kts
02-Nov-20 15:36 42.342106 -122.746975 178 15575ft 131kts
02-Nov-20 15:37 42.305961 -122.740891 178 15578ft 131kts
02-Nov-20 15:38 42.269468 -122.734928 178 15588ft 134kts
02-Nov-20 15:39 42.232456 -122.729034 178 15581ft 132kts
02-Nov-20 15:40 42.196197 -122.723274 178 15576ft 128kts
02-Nov-20 15:41 42.161968 -122.717942 177 15561ft 120kts
02-Nov-20 15:42 42.127892 -122.712547 178 15600ft 125kts
02-Nov-20 15:43 42.092307 -122.707074 178 15581ft 127kts
02-Nov-20 15:44 42.057479 -122.701931 178 15622ft 128kts
02-Nov-20 15:45 42.020887 -122.696486 178 15610ft 131kts
02-Nov-20 15:46 41.985027 -122.691166 178 15603ft 128kts
02-Nov-20 15:47 41.949274 -122.686308 178 15608ft 129kts
02-Nov-20 15:48 41.913411 -122.681364 178 15621ft 132kts
02-Nov-20 15:49 41.876041 -122.676545 178 15621ft 135kts
02-Nov-20 15:50 41.838444 -122.671674 178 15618ft 136kts
02-Nov-20 15:51 41.801714 -122.666909 178 15632ft 131kts
02-Nov-20 15:52 41.764745 -122.662420 178 15621ft 132kts
02-Nov-20 15:53 41.728180 -122.657866 178 15621ft 131kts
02-Nov-20 15:54 41.691988 -122.651916 172 15626ft 131kts
02-Nov-20 15:55 41.656364 -122.641735 172 15611ft 129kts
02-Nov-20 15:56 41.620730 -122.632124 172 15635ft 132kts
02-Nov-20 15:57 41.584493 -122.622410 172 15623ft 132kts
02-Nov-20 15:58 41.547618 -122.612743 172 15638ft 138kts
02-Nov-20 16:00 41.509659 -122.603120 172 15642ft 140kts
02-Nov-20 16:01 41.471476 -122.591517 171 15544ft 141kts
02-Nov-20 16:02 41.433971 -122.578057 172 15522ft 139kts
02-Nov-20 16:03 41.396566 -122.565383 170 15465ft 132kts
02-Nov-20 16:04 41.360749 -122.556302 172 15633ft 134kts
02-Nov-20 16:05 41.322364 -122.547414 172 15645ft 144kts
02-Nov-20 16:06 41.282386 -122.538057 172 15628ft 145kts
02-Nov-20 16:07 41.242796 -122.528705 172 15647ft 143kts
02-Nov-20 16:08 41.202089 -122.519206 172 14963ft 151kts
02-Nov-20 16:09 41.160467 -122.509293 172 13968ft 152kts
02-Nov-20 16:10 41.118495 -122.499378 172 12956ft 152kts
02-Nov-20 16:11 41.076843 -122.489602 172 11951ft 152kts
02-Nov-20 16:12 41.038221 -122.480708 171 11651ft 129kts
02-Nov-20 16:13 41.004771 -122.472623 172 11608ft 120kts
02-Nov-20 16:13 40.972937 -122.465253 172 10813ft 148kts
02-Nov-20 16:15 40.924656 -122.455041 172 9615ft 151kts
02-Nov-20 16:15 40.889756 -122.448121 171 8773ft 152kts
02-Nov-20 16:17 40.840123 -122.439025 172 7606ft 155kts
02-Nov-20 16:17 40.804365 -122.432803 168 6773ft 156kts
02-Nov-20 16:18 40.762565 -122.415489 159 5825ft 156kts
02-Nov-20 16:20 40.718156 -122.396480 160 5620ft 134kts
02-Nov-20 16:20 40.684851 -122.381965 155 5043ft 172kts
02-Nov-20 16:22 40.634164 -122.349700 152 3866ft 173kts
02-Nov-20 16:22 40.605485 -122.317519 133 3460ft 159kts
02-Nov-20 16:23 40.565942 -122.298314 167 2587ft 142kts
02-Nov-20 16:24 40.534441 -122.294831 178 1217ft 104kts
02-Nov-20 16:25 40.517614 -122.294937 195 506ft 25kts
02-Nov-20 16:26 40.516786 -122.295915 223 506ft 0kts
02-Nov-20 16:27 40.510885 -122.298721 224 502ft 14kts

Navigation Log

Ident Type
Flight plan parsing failed, navigation log unavailable